Time;durP1;ratioP1;P1;durP2;ratioP2;P2;SDS_P1;SDS_P2;PMS_P1;PMS_P2;Temp;Humidity;BMP_temperature;BMP_pressure;BME280_temperature;BME280_humidity;BME280_pressure;Samples;Min_cycle;Max_cycle;Signal;HPM_P1;HPM_P2
2022/04/17 00:07:29;;;;;;;3.97;1.70;;;12.20;62.60;;;;;;20648628;28;20104;-76
2022/04/17 00:17:30;;;;;;;5.35;1.80;;;12.20;62.60;;;;;;20711890;28;20725;-76
2022/04/17 00:27:31;;;;;;;4.95;1.52;;;12.20;62.50;;;;;;20712528;28;20037;-76
2022/04/17 00:37:31;;;;;;;3.60;1.67;;;12.10;62.40;;;;;;20720047;28;20042;-76
2022/04/17 00:47:32;;;;;;;4.28;2.10;;;12.20;62.40;;;;;;20703361;28;20468;-76
2022/04/17 00:57:33;;;;;;;4.90;2.33;;;12.10;62.30;;;;;;20702923;28;20808;-76
2022/04/17 01:07:33;;;;;;;3.58;1.90;;;12.10;62.20;;;;;;20701817;28;20464;-76
2022/04/17 01:17:34;;;;;;;4.05;1.73;;;12.10;62.20;;;;;;20733086;28;20041;-76
2022/04/17 01:27:35;;;;;;;5.80;2.83;;;12.10;62.10;;;;;;20717976;28;20120;-77
2022/04/17 01:37:36;;;;;;;7.15;2.55;;;12.00;62.00;;;;;;20714807;28;20081;-76
2022/04/17 01:47:37;;;;;;;4.22;2.33;;;12.00;61.90;;;;;;20731573;28;20149;-76
2022/04/17 01:57:37;;;;;;;5.40;2.45;;;12.00;61.80;;;;;;20713889;28;20088;-76
2022/04/17 02:07:38;;;;;;;6.93;2.42;;;12.00;61.80;;;;;;20697122;28;20081;-76
2022/04/17 02:17:38;;;;;;;6.82;2.95;;;12.00;61.60;;;;;;20698034;28;20124;-76
2022/04/17 02:27:39;;;;;;;4.68;2.95;;;11.90;61.50;;;;;;21062532;23;20053;-70
2022/04/17 02:37:39;;;;;;;7.05;3.53;;;11.90;61.40;;;;;;20622788;28;20125;-70
2022/04/17 02:47:44;;;;;;;6.28;3.25;;;11.90;61.40;;;;;;20628826;28;20046;-71
2022/04/17 02:57:45;;;;;;;7.10;3.83;;;11.90;61.30;;;;;;20629293;28;20041;-71
2022/04/17 03:07:45;;;;;;;7.47;3.80;;;11.80;61.20;;;;;;20629039;28;20313;-70
2022/04/17 03:17:46;;;;;;;5.35;3.15;;;11.80;61.10;;;;;;20627970;28;20383;-71
2022/04/17 03:27:47;;;;;;;8.75;3.38;;;11.80;61.10;;;;;;20611401;28;20046;-71
2022/04/17 03:37:48;;;;;;;8.82;3.47;;;11.80;61.00;;;;;;20626754;28;20129;-70
2022/04/17 03:47:48;;;;;;;8.02;4.13;;;11.80;61.00;;;;;;20644256;28;20048;-71
2022/04/17 03:57:49;;;;;;;6.47;3.60;;;11.70;60.80;;;;;;20625875;28;20476;-70
2022/04/17 04:07:50;;;;;;;7.97;3.75;;;11.80;60.80;;;;;;20640643;28;20038;-70
2022/04/17 04:17:50;;;;;;;9.88;3.80;;;11.80;60.80;;;;;;20640964;28;20034;-70
2022/04/17 04:38:10;;;;;;;7.80;4.10;;;11.70;60.60;;;;;;20641288;28;20034;-71
2022/04/17 04:48:10;;;;;;;6.53;3.65;;;11.60;60.60;;;;;;20622658;28;20456;-70
2022/04/17 04:58:11;;;;;;;9.52;4.68;;;11.70;60.60;;;;;;20637469;28;20130;-70
2022/04/17 05:08:12;;;;;;;7.50;3.60;;;11.60;60.60;;;;;;20637569;28;20054;-70
2022/04/17 05:18:13;;;;;;;7.10;4.00;;;11.60;60.60;;;;;;20636562;28;20176;-70
2022/04/17 05:28:14;;;;;;;7.15;3.70;;;11.50;60.40;;;;;;20651771;28;20062;-70
2022/04/17 05:38:15;;;;;;;9.63;4.93;;;11.60;60.50;;;;;;20634640;28;20081;-70
2022/04/17 05:48:16;;;;;;;6.97;4.05;;;11.60;60.60;;;;;;20634053;28;20591;-71
2022/04/17 05:58:16;;;;;;;6.90;3.90;;;11.60;60.60;;;;;;20649036;28;20034;-71
2022/04/17 06:08:17;;;;;;;7.28;3.42;;;11.60;60.70;;;;;;20632384;28;20073;-70
2022/04/17 06:18:18;;;;;;;6.40;3.42;;;11.60;60.80;;;;;;20647862;28;20068;-71
2022/04/17 06:28:18;;;;;;;7.97;4.18;;;11.60;60.90;;;;;;20635797;28;20147;-70
2022/04/17 06:38:20;;;;;;;5.40;2.88;;;11.60;61.10;;;;;;20693581;28;20412;-71
2022/04/17 06:48:21;;;;;;;7.32;2.90;;;11.60;61.20;;;;;;20737006;28;20391;-70
2022/04/17 06:58:22;;;;;;;5.93;3.13;;;11.60;61.30;;;;;;20709289;28;20084;-70
2022/04/17 07:08:22;;;;;;;7.15;3.30;;;11.60;61.40;;;;;;20708703;28;20038;-69
2022/04/17 07:18:23;;;;;;;5.10;3.20;;;11.70;61.60;;;;;;20708537;28;20458;-70
2022/04/17 07:28:23;;;;;;;5.88;2.53;;;11.60;61.60;;;;;;20691925;28;20519;-70
2022/04/17 07:38:24;;;;;;;4.95;3.00;;;11.70;61.80;;;;;;20690929;28;20065;-70
2022/04/17 07:48:25;;;;;;;7.20;2.95;;;11.70;61.80;;;;;;20690898;28;20092;-73
2022/04/17 07:58:34;;;;;;;5.07;2.60;;;11.70;61.80;;;;;;20690401;28;20034;-70
2022/04/17 08:08:35;;;;;;;4.60;1.90;;;11.70;61.90;;;;;;20723548;28;20041;-70
2022/04/17 08:18:36;;;;;;;3.95;2.30;;;11.70;61.90;;;;;;20705827;28;20561;-72
2022/04/17 08:28:37;;;;;;;5.20;2.30;;;11.70;62.00;;;;;;20705466;28;20041;-70
2022/04/17 08:38:38;;;;;;;3.88;2.10;;;11.80;62.10;;;;;;20706490;28;20104;-70
2022/04/17 08:48:38;;;;;;;4.57;1.80;;;11.80;62.20;;;;;;20709890;28;20053;-71
2022/04/17 08:58:39;;;;;;;2.63;1.90;;;11.80;62.20;;;;;;20702607;28;20042;-69
2022/04/17 09:08:55;;;;;;;3.75;1.63;;;11.80;62.20;;;;;;20717884;28;20643;-70
2022/04/17 09:18:58;;;;;;;3.33;1.75;;;11.80;62.20;;;;;;20700955;28;20049;-70
2022/04/17 09:28:59;;;;;;;3.63;1.90;;;11.90;62.30;;;;;;20701261;28;20476;-69
2022/04/17 09:39:15;;;;;;;3.67;1.83;;;11.90;62.30;;;;;;20699601;28;20053;-72
2022/04/17 09:49:16;;;;;;;3.40;1.47;;;11.90;62.30;;;;;;20698518;28;20030;-71
2022/04/17 09:59:18;;;;;;;3.45;1.38;;;11.90;62.40;;;;;;20713460;28;20034;-70
2022/04/17 10:09:18;;;;;;;5.65;1.65;;;11.90;62.40;;;;;;20712965;28;20048;-71
2022/04/17 10:19:25;;;;;;;2.10;1.23;;;11.90;62.50;;;;;;20728860;28;20445;-71
2022/04/17 10:29:46;;;;;;;1.63;1.17;;;11.90;62.50;;;;;;20671358;28;20294;-70
2022/04/17 10:39:48;;;;;;;2.63;1.42;;;11.90;62.60;;;;;;20614385;28;20042;-70
2022/04/17 10:49:53;;;;;;;2.05;1.30;;;11.90;62.70;;;;;;20614130;28;20045;-70
2022/04/17 11:00:28;;;;;;;1.35;0.90;;;11.90;62.70;;;;;;20612911;28;20038;-70
2022/04/17 11:10:32;;;;;;;2.33;1.40;;;11.90;62.70;;;;;;20643779;28;20423;-70
2022/04/17 11:20:32;;;;;;;1.80;0.90;;;11.90;62.70;;;;;;20627424;28;20045;-71
2022/04/17 11:30:34;;;;;;;2.37;1.20;;;11.90;62.70;;;;;;20627220;28;20520;-73
2022/04/17 11:40:36;;;;;;;1.92;1.20;;;11.90;62.70;;;;;;20610944;28;20712;-72
2022/04/17 11:50:37;;;;;;;1.55;1.13;;;11.90;62.70;;;;;;20610348;28;20074;-70
2022/04/17 12:00:38;;;;;;;2.00;0.98;;;11.90;62.80;;;;;;20626752;28;20473;-71
2022/04/17 12:10:42;;;;;;;1.48;0.80;;;11.90;62.80;;;;;;20610084;28;20038;-70
2022/04/17 12:20:43;;;;;;;2.10;1.27;;;11.90;62.90;;;;;;20628239;28;20045;-70
2022/04/17 12:30:44;;;;;;;1.97;1.00;;;11.90;62.90;;;;;;20624226;28;20034;-70
2022/04/17 12:40:44;;;;;;;0.90;0.52;;;11.90;62.90;;;;;;20623380;28;20323;-72
2022/04/17 12:50:49;;;;;;;1.65;0.80;;;11.90;63.00;;;;;;20654598;28;20471;-71
2022/04/17 13:00:57;;;;;;;2.83;0.80;;;11.90;63.00;;;;;;20622549;28;20042;-69
2022/04/17 13:10:57;;;;;;;2.13;1.00;;;11.90;63.10;;;;;;20605114;28;20524;-71
2022/04/17 13:20:58;;;;;;;1.63;0.73;;;11.90;63.00;;;;;;20620204;28;20046;-71
2022/04/17 13:30:59;;;;;;;1.40;0.77;;;12.00;63.00;;;;;;20636463;28;20676;-70
2022/04/17 13:40:59;;;;;;;0.55;0.52;;;12.00;63.00;;;;;;20650396;28;20393;-70
2022/04/17 13:51:05;;;;;;;1.05;0.60;;;12.00;62.90;;;;;;20633828;28;20558;-70
2022/04/17 14:01:05;;;;;;;0.90;0.40;;;12.10;62.90;;;;;;20618488;28;20022;-70
2022/04/17 14:11:06;;;;;;;1.38;0.80;;;12.20;62.90;;;;;;20616491;28;20060;-70
2022/04/17 14:21:07;;;;;;;2.15;0.80;;;12.20;62.70;;;;;;20648146;28;20027;-70
2022/04/17 14:31:07;;;;;;;0.95;0.50;;;12.30;62.60;;;;;;20631541;28;20035;-72
2022/04/17 14:41:08;;;;;;;0.88;0.60;;;12.40;62.50;;;;;;20613899;28;20042;-71
2022/04/17 14:51:09;;;;;;;1.30;0.85;;;12.60;62.30;;;;;;20643593;28;20531;-71
2022/04/17 15:01:09;;;;;;;0.85;0.50;;;12.70;62.10;;;;;;20685012;28;20038;-70
2022/04/17 15:11:10;;;;;;;0.93;0.57;;;12.80;62.00;;;;;;20700681;28;20041;-70
2022/04/17 15:21:11;;;;;;;0.77;0.40;;;12.90;61.80;;;;;;20708122;28;20394;-70
2022/04/17 15:31:13;;;;;;;0.57;0.43;;;13.00;61.70;;;;;;20711023;28;20035;-71
2022/04/17 15:41:13;;;;;;;1.60;0.65;;;13.10;61.50;;;;;;20626412;28;20040;-70
2022/04/17 15:51:14;;;;;;;0.57;0.30;;;13.20;61.40;;;;;;20610613;28;20053;-70
2022/04/17 16:01:15;;;;;;;0.52;0.40;;;13.20;61.30;;;;;;20621527;28;20105;-70
2022/04/17 16:11:15;;;;;;;0.38;0.30;;;13.30;61.20;;;;;;20625804;28;20121;-70
2022/04/17 16:21:17;;;;;;;0.43;0.35;;;13.30;61.00;;;;;;20640596;28;20035;-71
2022/04/17 16:31:17;;;;;;;1.15;0.50;;;13.40;61.00;;;;;;20656259;28;20042;-70
2022/04/17 16:41:18;;;;;;;0.95;0.60;;;13.40;60.90;;;;;;20550961;28;20034;-71
2022/04/17 16:51:19;;;;;;;1.48;0.43;;;13.40;60.80;;;;;;20589079;28;20117;-70
2022/04/17 17:01:19;;;;;;;0.70;0.40;;;13.40;60.90;;;;;;20621749;28;20448;-72
2022/04/17 17:11:20;;;;;;;1.08;0.43;;;13.40;61.00;;;;;;20619816;28;20493;-70
2022/04/17 17:21:20;;;;;;;1.42;0.50;;;13.30;61.10;;;;;;20636349;28;20125;-71
2022/04/17 17:31:21;;;;;;;0.60;0.30;;;13.30;61.30;;;;;;20652265;28;20049;-71
2022/04/17 17:41:21;;;;;;;0.30;0.30;;;13.20;61.40;;;;;;20651246;28;20030;-70
2022/04/17 17:51:22;;;;;;;0.88;0.43;;;13.10;61.50;;;;;;20634195;28;20129;-71
2022/04/17 18:01:23;;;;;;;0.40;0.25;;;13.10;61.70;;;;;;20617364;28;20054;-72
2022/04/17 18:21:42;;;;;;;0.55;0.30;;;13.00;62.00;;;;;;20649660;28;20038;-70
2022/04/17 18:31:43;;;;;;;0.70;0.40;;;12.90;62.20;;;;;;20631172;28;20088;-71
2022/04/17 18:41:44;;;;;;;1.27;0.63;;;12.80;62.40;;;;;;20614230;28;20077;-70
2022/04/17 18:51:44;;;;;;;0.40;0.30;;;12.80;62.50;;;;;;20613312;28;20041;-72
2022/04/17 19:01:45;;;;;;;0.22;0.20;;;12.80;62.60;;;;;;20628689;28;20117;-71
2022/04/17 19:22:04;;;;;;;0.30;0.30;;;12.70;62.70;;;;;;20630248;28;20654;-70
2022/04/17 19:42:24;;;;;;;0.90;0.43;;;12.70;62.70;;;;;;20645964;28;20039;-72
2022/04/17 19:52:25;;;;;;;2.42;0.40;;;12.60;62.60;;;;;;20627860;28;20120;-70
2022/04/17 20:02:25;;;;;;;0.30;0.25;;;12.60;62.60;;;;;;20610291;28;20038;-70
2022/04/17 20:12:26;;;;;;;0.50;0.50;;;12.60;62.50;;;;;;20641596;28;20038;-70
2022/04/17 20:22:26;;;;;;;0.80;0.40;;;12.60;62.40;;;;;;20609391;28;20545;-71
2022/04/17 20:32:27;;;;;;;1.90;0.52;;;12.60;62.40;;;;;;20641572;28;20117;-70
2022/04/17 20:42:28;;;;;;;0.88;0.43;;;12.50;62.20;;;;;;20643458;28;20042;-70
2022/04/17 20:52:28;;;;;;;1.30;0.50;;;12.50;62.10;;;;;;20622314;28;20035;-73
2022/04/17 21:02:29;;;;;;;0.82;0.50;;;12.50;62.00;;;;;;20619824;28;20044;-72
2022/04/17 21:12:29;;;;;;;2.40;0.80;;;12.50;61.90;;;;;;20653290;28;20088;-72
2022/04/17 21:22:30;;;;;;;1.38;0.47;;;12.50;61.70;;;;;;20636944;28;20035;-72
2022/04/17 21:32:30;;;;;;;0.88;0.38;;;12.50;61.60;;;;;;20636576;28;20105;-74
2022/04/17 21:42:32;;;;;;;0.98;0.75;;;12.40;61.40;;;;;;20619686;28;20041;-72
2022/04/17 21:52:32;;;;;;;0.95;0.70;;;12.40;61.30;;;;;;20617340;28;20368;-72
2022/04/17 22:12:52;;;;;;;1.95;1.08;;;12.50;61.20;;;;;;20635262;28;20030;-73
2022/04/17 22:22:52;;;;;;;1.73;1.00;;;12.40;61.00;;;;;;20632060;28;20061;-71
2022/04/17 22:32:53;;;;;;;2.00;0.90;;;12.40;61.00;;;;;;20631672;28;20543;-74
2022/04/17 22:42:53;;;;;;;0.90;0.63;;;12.40;60.90;;;;;;20630133;28;20030;-73
2022/04/17 22:52:54;;;;;;;1.65;0.90;;;12.40;60.80;;;;;;20629866;28;20281;-72
2022/04/17 23:02:54;;;;;;;1.77;1.27;;;12.40;60.80;;;;;;20644977;28;20393;-72
2022/04/17 23:12:55;;;;;;;2.03;1.10;;;12.30;61.30;;;;;;20628825;28;20397;-73
2022/04/17 23:22:56;;;;;;;2.28;1.10;;;12.30;60.60;;;;;;20627909;28;20469;-73
2022/04/17 23:32:56;;;;;;;2.30;1.30;;;12.30;60.50;;;;;;20628321;28;20038;-72
2022/04/17 23:42:57;;;;;;;1.52;1.08;;;12.30;60.50;;;;;;20642944;28;20091;-73
2022/04/17 23:52:57;;;;;;;2.45;1.10;;;12.30;60.40;;;;;;20659889;28;20042;-73
